5E9 weather

Packer Airport
Radnor, Ohio, United States

Public forecast

Using degrees Fahrenheit for public forecast. Weather courtesy of forecast.io.

Closest aviation weather report (METAR) to Packer Airport

Closest report is Delaware Municipal Airport, 9.1 nm (16.8 km) SSE. Retrieved 2019/12/12 00:35 UTC (0 seconds ago):

KDLZ 120035Z AUTO 31005KT 10SM OVC027 M04/M08 A3054 RMK AO2

Closest aviation forecast (TAF) to Packer Airport

Closest forecast is John Glenn Columbus International Airport, 28.8 nm (53.4 km) SSE. Retrieved 2019-12-12 00:33 UTC (0 seconds ago):

TAF KCMH 112329Z 1200/1224 31006KT P6SM BKN040 OVC050 FM120100 35003KT P6SM FEW250 FM121200 14004KT P6SM SCT250 FM121900 17009KT P6SM OVC250